^^
Datos históricos de la estación: Murcia-Puente Tocinos
Diario Informe para Diciembre 04, 2021 Unidades:  Ingés    Métrico   Ambas
Diario Semanal Mensual Anual
  Máxima: Mínima: Promedio:
Temperatura: 68 °F 45.9 °F 55.6 °F
Punto de rocio: 41.9 °F 36 °F 38.8 °F
Humedad: 69% 35% 54%
Velocidad viento: 10mph 1.8mph 4.7mph
Racha viento: 19.6mph - -
Viento- - SSO
Presión: 30.2 in 30.1 in -
Precipitación: 0 in    
 
 
Tabla de datos para Diciembre 04, 2021
Hora Temperatura Punto de rocio Presión Viento Velocidad viento Racha viento Humedad Intensidad lluvia(por hora) Nubes
00:04 52.3 °F 37 °F 30.2 in Oeste 3.1 mph 2.3 mph 56% 0 in
00:09 52.2 °F 37.4 °F 30.2 in SSO 2.9 mph 4.6 mph 56.9% 0 in
00:14 52.2 °F 37.4 °F 30.2 in SE 1.8 mph 7.4 mph 57.1% 0 in
00:19 52 °F 37.6 °F 30.2 in SE 2.2 mph 5.8 mph 58% 0 in
00:24 51.6 °F 37.4 °F 30.2 in SSE 4 mph 4.7 mph 58.3% 0 in
00:29 51.3 °F 37.6 °F 30.2 in SSE 4 mph 7.4 mph 59.2% 0 in
00:34 50.9 °F 37.6 °F 30.2 in SSE 4 mph 8.1 mph 60.2% 0 in
00:39 50.5 °F 37.6 °F 30.2 in Sur 4.3 mph 9.2 mph 61% 0 in
00:44 50.5 °F 37.6 °F 30.2 in Sur 5.4 mph 6.9 mph 61% 0 in
00:49 50.5 °F 37.6 °F 30.2 in SSE 5.2 mph 6.9 mph 61% 0 in
00:54 50.5 °F 37.6 °F 30.2 in Sur 4.3 mph 7.4 mph 61% 0 in
00:59 50.4 °F 37.4 °F 30.2 in SSO 4.5 mph 7.4 mph 61% 0 in
01:04 50.5 °F 37.6 °F 30.2 in SSO 5.2 mph 6.9 mph 61% 0 in
01:09 50.5 °F 37.6 °F 30.2 in SO 5 mph 5.9 mph 61% 0 in
01:14 50.5 °F 37.6 °F 30.2 in SO 4 mph 5.8 mph 61% 0 in
01:19 50.5 °F 37.6 °F 30.2 in Sur 3.8 mph 5.2 mph 61% 0 in
01:24 50.5 °F 37.6 °F 30.2 in SSE 2.9 mph 5.9 mph 61% 0 in
01:29 50.4 °F 37.6 °F 30.2 in SSE 3 mph 6.2 mph 61.3% 0 in
01:34 50.2 °F 37.6 °F 30.2 in SSE 3.6 mph 5.9 mph 62% 0 in
01:39 49.8 °F 37.6 °F 30.2 in SE 3.7 mph 5.9 mph 62.7% 0 in
01:44 49.5 °F 37.6 °F 30.2 in SE 4.3 mph 6.9 mph 63.4% 0 in
01:49 48.7 °F 37.4 °F 30.2 in SSE 4.3 mph 7.4 mph 64.8% 0 in
01:54 48.2 °F 37.4 °F 30.2 in Sur 4.3 mph 8.1 mph 66.1% 0 in
01:59 48 °F 37.6 °F 30.2 in SSO 4.6 mph 7.4 mph 67% 0 in
02:04 48 °F 37.6 °F 30.2 in SSO 5.2 mph 6.2 mph 67% 0 in
02:09 48.4 °F 37.8 °F 30.2 in Sur 5 mph 6.9 mph 66.4% 0 in
02:14 48.7 °F 37.6 °F 30.2 in Sur 4.3 mph 9.2 mph 65.5% 0 in
02:19 49.1 °F 37.6 °F 30.2 in SSO 4.6 mph 9.7 mph 64.4% 0 in
02:24 49.3 °F 37.4 °F 30.2 in SSO 5.4 mph 8.1 mph 63.2% 0 in
02:29 49.5 °F 37.4 °F 30.2 in SSO 5.5 mph 10.4 mph 63% 0 in
02:34 49.5 °F 37.2 °F 30.2 in SSO 5.9 mph 9.2 mph 63% 0 in
02:39 49.1 °F 37 °F 30.2 in SSO 5.9 mph 10.4 mph 63.2% 0 in
02:44 48.7 °F 37.2 °F 30.2 in Sur 5.9 mph 8.1 mph 64% 0 in
02:49 48.4 °F 37 °F 30.2 in SSE 5.8 mph 9.2 mph 64.6% 0 in
02:54 47.8 °F 36.9 °F 30.2 in Sur 5.4 mph 8.1 mph 65.8% 0 in
02:59 47.5 °F 37 °F 30.2 in SSE 5.4 mph 8.1 mph 66.9% 0 in
03:04 47.1 °F 37 °F 30.2 in SSE 5.4 mph 7.4 mph 67.5% 0 in
03:09 47.1 °F 37 °F 30.2 in Sur 5.2 mph 7.4 mph 68% 0 in
03:14 46.9 °F 37 °F 30.2 in SSO 4.7 mph 6.9 mph 68.2% 0 in
03:19 46.9 °F 37.2 °F 30.2 in SSO 4.6 mph 5.9 mph 69% 0 in
03:24 47.1 °F 37.4 °F 30.2 in SSO 4.3 mph 8.1 mph 68.6% 0 in
03:29 47.5 °F 37.4 °F 30.2 in SSO 4.4 mph 7.4 mph 67.8% 0 in
03:34 47.8 °F 37.4 °F 30.2 in SSO 4.7 mph 10.4 mph 66.8% 0 in
03:39 48.2 °F 37.4 °F 30.2 in SSO 4.9 mph 8.1 mph 65.9% 0 in
03:44 48.6 °F 37.2 °F 30.2 in SSO 5.4 mph 9.2 mph 64.9% 0 in
03:49 48.7 °F 37.2 °F 30.2 in SSO 5.5 mph 9.2 mph 64% 0 in
03:54 48.9 °F 37 °F 30.2 in SSO 5.9 mph 8.1 mph 63.4% 0 in
03:59 49.1 °F 37 °F 30.2 in SO 5.8 mph 9.2 mph 63% 0 in
04:04 49.1 °F 37 °F 30.2 in SSO 5.4 mph 9.7 mph 63% 0 in
04:09 49.1 °F 37 °F 30.2 in SSO 5.6 mph 9.2 mph 63% 0 in
04:14 48.9 °F 36.9 °F 30.2 in SSO 6.2 mph 8.1 mph 63% 0 in
04:19 48.9 °F 36.9 °F 30.2 in Sur 5.8 mph 6.9 mph 63% 0 in
04:24 48.7 °F 36.9 °F 30.2 in SSO 4.7 mph 9.2 mph 63% 0 in
04:29 48.7 °F 36.7 °F 30.2 in SSO 4.6 mph 9.2 mph 63% 0 in
04:34 48.7 °F 36.7 °F 30.2 in SSO 4.3 mph 7.4 mph 63% 0 in
04:39 48.7 °F 36.7 °F 30.2 in SSO 4.4 mph 8.1 mph 63% 0 in
04:44 48.6 °F 36.5 °F 30.2 in SSO 4.7 mph 9.2 mph 63% 0 in
04:49 48.6 °F 36.5 °F 30.2 in SSO 5.1 mph 11.4 mph 63% 0 in
04:54 48.6 °F 36.5 °F 30.2 in SSO 6.2 mph 11.8 mph 63% 0 in
04:59 48.7 °F 36.7 °F 30.2 in SSO 6.4 mph 11.5 mph 63% 0 in
05:04 48.9 °F 36.5 °F 30.2 in SSO 6.9 mph 11.5 mph 62.1% 0 in
05:09 48.9 °F 36.5 °F 30.2 in SSO 6.8 mph 10.4 mph 62% 0 in
05:14 48.7 °F 36.3 °F 30.2 in SSO 6.4 mph 8.1 mph 62.2% 0 in
05:19 48.6 °F 36.5 °F 30.2 in SO 5.9 mph 6.2 mph 63% 0 in
05:24 48.4 °F 36.5 °F 30.2 in SO 4.7 mph 8.7 mph 63% 0 in
05:29 48.2 °F 36.5 °F 30.2 in SO 4.5 mph 9.2 mph 63.8% 0 in
05:34 48 °F 36.3 °F 30.2 in SO 4 mph 9.2 mph 64% 0 in
05:39 48 °F 36.3 °F 30.2 in SO 4.3 mph 10.4 mph 64% 0 in
05:44 48 °F 36.3 °F 30.2 in SO 5.2 mph 11.5 mph 64% 0 in
05:49 47.8 °F 36.3 °F 30.2 in SO 5.1 mph 6.9 mph 64% 0 in
05:54 47.8 °F 36.1 °F 30.2 in SO 4.7 mph 5.9 mph 64% 0 in
05:59 47.7 °F 36.5 °F 30.2 in Sur 4.2 mph 5.8 mph 65% 0 in
06:04 47.5 °F 36.3 °F 30.2 in SSE 3.1 mph 6.9 mph 65% 0 in
06:09 47.1 °F 36.1 °F 30.2 in Sur 3.5 mph 7.4 mph 65.7% 0 in
06:14 46.9 °F 36.1 °F 30.2 in SSO 4.7 mph 7.6 mph 66% 0 in
06:19 46.9 °F 36.3 °F 30.2 in SSO 4.8 mph 8.1 mph 66.3% 0 in
06:24 46.9 °F 36.1 °F 30.2 in SSO 5.2 mph 6.2 mph 66% 0 in
06:29 46.9 °F 36.1 °F 30.2 in SO 4.9 mph 6.9 mph 66% 0 in
06:34 47.1 °F 36.3 °F 30.2 in SSO 4 mph 6.9 mph 66% 0 in
06:39 47.1 °F 36.3 °F 30.2 in SSO 4.2 mph 8.1 mph 66% 0 in
06:44 47.1 °F 36.1 °F 30.2 in SSO 4.7 mph 10.7 mph 65.5% 0 in
06:49 47.1 °F 36.1 °F 30.2 in SSO 5.1 mph 11.4 mph 65.2% 0 in
06:54 47.1 °F 36.3 °F 30.2 in SSO 6.4 mph 11.5 mph 66% 0 in
06:59 46.9 °F 36.1 °F 30.2 in SO 6.3 mph 8.1 mph 66% 0 in
07:04 46.9 °F 36.1 °F 30.2 in SO 6.2 mph 6.9 mph 66% 0 in
07:09 46.8 °F 36.1 °F 30.2 in SSO 5.7 mph 8.5 mph 66.2% 0 in
07:14 46.8 °F 36.3 °F 30.2 in SSO 4.3 mph 9.2 mph 67% 0 in
07:19 46.6 °F 36.1 °F 30.2 in SSO 4.7 mph 10.4 mph 67% 0 in
07:24 46.4 °F 36.1 °F 30.2 in SSO 6.2 mph 10 mph 67% 0 in
07:29 46.2 °F 36.1 °F 30.2 in SSO 6.2 mph 10.7 mph 67.6% 0 in
07:34 46.2 °F 36.1 °F 30.2 in SSO 6.2 mph 10.4 mph 68% 0 in
07:39 46 °F 36.1 °F 30.2 in SSO 6.2 mph 8.1 mph 68% 0 in
07:44 46 °F 36.1 °F 30.2 in SSO 5.9 mph 8.5 mph 68% 0 in
07:49 46 °F 36.1 °F 30.2 in SSO 5.8 mph 8.5 mph 68% 0 in
07:54 46.2 °F 36.1 °F 30.2 in SO 5.4 mph 8.1 mph 67.9% 0 in
07:59 46.4 °F 36 °F 30.2 in OSO 5.3 mph 9.2 mph 67% 0 in
08:04 46.4 °F 36 °F 30.2 in OSO 5.2 mph 6.9 mph 67% 0 in
08:09 46.2 °F 36 °F 30.2 in OSO 5 mph 6.2 mph 67% 0 in
08:14 46.2 °F 36.1 °F 30.2 in OSO 4.3 mph 6.2 mph 67.6% 0 in
08:19 46.2 °F 36.1 °F 30.2 in OSO 4.1 mph 5.9 mph 67.8% 0 in
08:24 46 °F 36 °F 30.2 in Oeste 3.6 mph 4.7 mph 67.5% 0 in
08:29 45.9 °F 36 °F 30.2 in OSO 3.5 mph 4.7 mph 68% 0 in
08:34 45.9 °F 36.1 °F 30.2 in OSO 3.1 mph 4.6 mph 68.8% 0 in
08:39 45.9 °F 36.3 °F 30.2 in Sur 3 mph 5.8 mph 69% 0 in
08:44 46.4 °F 36.5 °F 30.2 in SSE 2.9 mph 5.2 mph 68.3% 0 in
08:49 46.6 °F 36.3 °F 30.2 in Sur 3.1 mph 6.4 mph 67.2% 0 in
08:54 46.8 °F 36.3 °F 30.2 in Sur 3.6 mph 7.4 mph 67% 0 in
08:59 46.8 °F 36.3 °F 30.2 in SSO 3.9 mph 6.9 mph 67% 0 in
09:04 46.8 °F 36.3 °F 30.2 in SSO 4.7 mph 5.8 mph 67% 0 in
09:09 46.8 °F 36.3 °F 30.2 in SO 4.4 mph 6.9 mph 67% 0 in
09:14 46.9 °F 36.5 °F 30.2 in SO 3.6 mph 6.9 mph 67% 0 in
09:19 47.1 °F 36.3 °F 30.2 in OSO 3.7 mph 5.8 mph 66.1% 0 in
09:24 47.5 °F 36.7 °F 30.2 in SO 4 mph 6.9 mph 66% 0 in
09:29 47.7 °F 36.9 °F 30.2 in SO 3.9 mph 5.9 mph 66% 0 in
09:34 47.8 °F 36.7 °F 30.2 in SO 3.6 mph 7.4 mph 65.4% 0 in
09:39 48 °F 36.9 °F 30.2 in SSO 3.8 mph 7.4 mph 65% 0 in
09:44 48.6 °F 36.9 °F 30.2 in Sur 4.3 mph 8.1 mph 64.1% 0 in
09:49 48.7 °F 37 °F 30.2 in Sur 4.6 mph 8.1 mph 63.8% 0 in
09:54 48.9 °F 37 °F 30.2 in SSO 5.4 mph 9.2 mph 63.2% 0 in
09:59 49.1 °F 37.4 °F 30.2 in SSO 5.3 mph 6.9 mph 63.6% 0 in
10:04 49.5 °F 37.4 °F 30.2 in SSO 5.2 mph 9.7 mph 63.2% 0 in
10:09 49.6 °F 37.6 °F 30.2 in SSO 5.1 mph 6.9 mph 63% 0 in
10:14 50 °F 37.6 °F 30.2 in SSO 4.7 mph 7.4 mph 62.5% 0 in
10:19 50.4 °F 37.8 °F 30.2 in SSO 4.6 mph 6.2 mph 62% 0 in
10:24 50.7 °F 38.1 °F 30.2 in SSO 4.3 mph 8.5 mph 61.8% 0 in
10:29 51.3 °F 38.1 °F 30.2 in SSO 4.5 mph 9.2 mph 60.7% 0 in
10:34 51.4 °F 37.9 °F 30.2 in SSO 5.2 mph 10.7 mph 59.8% 0 in
10:39 51.8 °F 38.1 °F 30.2 in SSO 5.2 mph 9.2 mph 59.7% 0 in
10:44 52.2 °F 38.1 °F 30.2 in SSO 5.2 mph 8.1 mph 58.4% 0 in
10:49 52.5 °F 37.9 °F 30.2 in Sur 5.3 mph 8.5 mph 57.6% 0 in
10:54 53.1 °F 37.9 °F 30.2 in Sur 5.9 mph 9.2 mph 56.4% 0 in
10:59 53.4 °F 37.9 °F 30.2 in SSO 5.9 mph 9.2 mph 55.6% 0 in
11:04 54 °F 38.1 °F 30.2 in Sur 5.9 mph 8.1 mph 55% 0 in
11:09 54.1 °F 37.9 °F 30.2 in Sur 5.7 mph 7.4 mph 53.9% 0 in
11:14 54.7 °F 37.9 °F 30.2 in SSO 5.2 mph 6.9 mph 53% 0 in
11:19 55 °F 38.3 °F 30.2 in SSO 5 mph 6.9 mph 53% 0 in
11:24 55.4 °F 38.1 °F 30.2 in SO 4.3 mph 8.5 mph 52.2% 0 in
11:29 55.8 °F 38.3 °F 30.2 in SO 4.3 mph 7.4 mph 51.7% 0 in
11:34 55.9 °F 37.8 °F 30.2 in SSO 4.3 mph 8.5 mph 50.2% 0 in
11:39 56.3 °F 37.8 °F 30.2 in SSO 4.4 mph 6.9 mph 50% 0 in
11:44 56.5 °F 38.1 °F 30.2 in SO 4.7 mph 6.9 mph 50% 0 in
11:49 56.7 °F 38.1 °F 30.2 in SSO 4.6 mph 8.1 mph 49.6% 0 in
11:54 56.8 °F 38.1 °F 30.2 in SO 4.3 mph 8.1 mph 49.2% 0 in
11:59 57 °F 38.1 °F 30.2 in SSO 4.3 mph 7.4 mph 49.3% 0 in
12:04 57.6 °F 38.5 °F 30.2 in SSO 4.3 mph 9.2 mph 48.9% 0 in
12:09 57.6 °F 38.5 °F 30.2 in Sur 4.6 mph 8.1 mph 48.8% 0 in
12:14 57.7 °F 38.7 °F 30.2 in SSO 5.4 mph 7.4 mph 48.6% 0 in
12:19 58.3 °F 38.5 °F 30.2 in SO 5.1 mph 7.4 mph 47.7% 0 in
12:24 58.5 °F 38.5 °F 30.2 in SSO 4.3 mph 6.9 mph 47.2% 0 in
12:29 58.6 °F 38.7 °F 30.1 in SSO 4.3 mph 7.4 mph 47.3% 0 in
12:34 59 °F 38.8 °F 30.1 in SSO 4.3 mph 6.2 mph 47.1% 0 in
12:39 59.4 °F 39 °F 30.1 in SSO 4.3 mph 7.4 mph 46.8% 0 in
12:44 59.5 °F 39.2 °F 30.1 in SSO 4.3 mph 6.9 mph 46.9% 0 in
12:49 59.7 °F 39 °F 30.1 in SO 4.3 mph 8.7 mph 46.3% 0 in
12:54 60.1 °F 39.2 °F 30.1 in SO 4.3 mph 9.2 mph 46% 0 in
12:59 60.4 °F 39.4 °F 30.1 in SSO 4.4 mph 8.1 mph 45.7% 0 in
13:04 60.8 °F 39.4 °F 30.1 in SSO 4.7 mph 7.4 mph 45% 0 in
13:09 61.3 °F 39.4 °F 30.1 in Sur 4.8 mph 8.1 mph 44.4% 0 in
13:14 61.7 °F 39.4 °F 30.1 in SSO 5.2 mph 8.1 mph 43.7% 0 in
13:19 62.1 °F 39.6 °F 30.1 in SSO 5 mph 8.7 mph 43.5% 0 in
13:24 62.1 °F 39.4 °F 30.1 in SSO 4.3 mph 9.2 mph 43% 0 in
13:29 62.1 °F 39.4 °F 30.1 in Sur 4.8 mph 11.8 mph 43% 0 in
13:34 62.2 °F 39.4 °F 30.1 in Sur 6.2 mph 10.4 mph 42.8% 0 in
13:39 62.2 °F 39 °F 30.1 in Sur 6.3 mph 9.2 mph 42.2% 0 in
13:44 62.4 °F 39.4 °F 30.1 in Sur 6.4 mph 10 mph 42.4% 0 in
13:49 62.8 °F 39 °F 30.1 in Sur 6.3 mph 10.4 mph 41.6% 0 in
13:54 63 °F 39.4 °F 30.1 in Sur 6.2 mph 9.2 mph 42% 0 in
13:59 63.1 °F 39.4 °F 30.1 in Sur 6.1 mph 10.4 mph 41.5% 0 in
14:04 63.5 °F 39.6 °F 30.1 in Sur 5.9 mph 10.4 mph 41.1% 0 in
14:09 63.7 °F 39.6 °F 30.1 in Sur 6.2 mph 12.7 mph 41% 0 in
14:14 63.9 °F 39.7 °F 30.1 in Sur 6.9 mph 10.7 mph 41% 0 in
14:19 64 °F 39.7 °F 30.1 in SSO 6.9 mph 13.8 mph 40.8% 0 in
14:24 64 °F 39.7 °F 30.1 in SSO 6.9 mph 10.4 mph 40.8% 0 in
14:29 64.4 °F 39.6 °F 30.1 in Sur 6.6 mph 11.5 mph 40.1% 0 in
14:34 64.6 °F 39.6 °F 30.1 in Sur 5.9 mph 10.4 mph 40% 0 in
14:39 64.8 °F 39.7 °F 30.1 in SSO 6.2 mph 9.2 mph 39.8% 0 in
14:44 64.9 °F 40.1 °F 30.1 in SSO 6.9 mph 8.5 mph 40% 0 in
14:49 65.3 °F 40.3 °F 30.1 in SO 6.5 mph 9.2 mph 40% 0 in
14:54 65.7 °F 39.9 °F 30.1 in SO 5.2 mph 10.4 mph 39.1% 0 in
14:59 65.8 °F 40.3 °F 30.1 in SSO 5.2 mph 7.6 mph 39% 0 in
15:04 66 °F 39.9 °F 30.1 in SSO 5.2 mph 8.5 mph 38.5% 0 in
15:09 66 °F 39.7 °F 30.1 in SSO 5.1 mph 8.1 mph 38% 0 in
15:14 66.4 °F 39.7 °F 30.1 in SO 4.7 mph 10.7 mph 37.7% 0 in
15:19 66.4 °F 40.1 °F 30.1 in SO 5 mph 10.4 mph 38% 0 in
15:24 66.6 °F 40.1 °F 30.1 in SO 5.9 mph 8.5 mph 38% 0 in
15:29 66.9 °F 39.9 °F 30.1 in SO 5.6 mph 10.7 mph 37.3% 0 in
15:34 66.9 °F 39.7 °F 30.1 in SO 4.7 mph 9.7 mph 37% 0 in
15:39 67.1 °F 39.6 °F 30.1 in SO 4.8 mph 7.4 mph 36.4% 0 in
15:44 67.5 °F 39.6 °F 30.1 in SSO 5.2 mph 8.5 mph 36% 0 in
15:49 67.5 °F 39.4 °F 30.1 in SSO 5 mph 8.1 mph 35.6% 0 in
15:54 67.6 °F 39.4 °F 30.1 in SSO 4.3 mph 7.4 mph 35.5% 0 in
15:59 67.8 °F 39.2 °F 30.1 in SSO 4 mph 5.9 mph 35.1% 0 in
16:04 68 °F 39.4 °F 30.1 in Sur 3.1 mph 8.1 mph 35% 0 in
16:09 68 °F 39.4 °F 30.1 in SO 3.4 mph 7.4 mph 35% 0 in
16:14 68 °F 39.2 °F 30.1 in SO 4.3 mph 6.9 mph 35% 0 in
16:19 67.8 °F 39.4 °F 30.1 in OSO 4.3 mph 6.2 mph 35.3% 0 in
16:24 67.5 °F 39.4 °F 30.1 in Oeste 4.3 mph 13.8 mph 35.8% 0 in
16:29 67.3 °F 39.4 °F 30.1 in Oeste 4.8 mph 15.2 mph 36% 0 in
16:34 67.3 °F 39.4 °F 30.1 in ONO 6.2 mph 16.1 mph 36% 0 in
16:39 66.9 °F 39.2 °F 30.1 in ONO 7.1 mph 19.6 mph 36.3% 0 in
16:44 66.7 °F 39.6 °F 30.1 in ONO 9.7 mph 17.3 mph 37% 0 in
16:49 66.6 °F 39.6 °F 30.1 in ONO 9.8 mph 16.1 mph 37% 0 in
16:54 66.6 °F 39.6 °F 30.1 in ONO 10 mph 14 mph 37.1% 0 in
16:59 66.6 °F 40.1 °F 30.1 in ONO 9.4 mph 13.8 mph 38% 0 in
17:04 66.6 °F 40.1 °F 30.1 in Oeste 8.1 mph 11.5 mph 38% 0 in
17:09 66.6 °F 40.1 °F 30.1 in Oeste 7.7 mph 11.5 mph 38% 0 in
17:14 66.6 °F 40.1 °F 30.1 in Oeste 6.4 mph 11.2 mph 38% 0 in
17:19 66.6 °F 40.1 °F 30.1 in OSO 6.2 mph 11.5 mph 38% 0 in
17:24 66.4 °F 40.5 °F 30.1 in OSO 5.4 mph 13.7 mph 38.6% 0 in
17:29 66.4 °F 40.6 °F 30.1 in OSO 5.4 mph 16.3 mph 38.8% 0 in
17:34 66.4 °F 40.6 °F 30.1 in Oeste 5.4 mph 12.7 mph 39% 0 in
17:39 66.2 °F 40.5 °F 30.1 in OSO 5.5 mph 8.1 mph 39% 0 in
17:44 66 °F 40.3 °F 30.1 in OSO 5.9 mph 6.9 mph 39% 0 in
17:49 65.8 °F 40.3 °F 30.1 in OSO 5.4 mph 6.9 mph 39.1% 0 in
17:54 65.7 °F 40.6 °F 30.1 in OSO 4 mph 7.4 mph 40% 0 in
17:59 65.5 °F 40.5 °F 30.1 in Oeste 4 mph 5.2 mph 40% 0 in
18:04 65.1 °F 40.8 °F 30.1 in Oeste 4 mph 6.9 mph 40.9% 0 in
18:09 64.9 °F 40.6 °F 30.1 in Oeste 4.1 mph 9.2 mph 41% 0 in
18:14 64.8 °F 41 °F 30.1 in Oeste 4.3 mph 6.9 mph 42% 0 in
18:19 64.4 °F 40.8 °F 30.1 in Oeste 4.2 mph 5.8 mph 42.2% 0 in
18:24 64 °F 41.2 °F 30.1 in NO 4 mph 5.4 mph 43% 0 in
18:29 63.9 °F 41 °F 30.1 in ONO 3.7 mph 5.8 mph 43% 0 in
18:34 63.9 °F 40.8 °F 30.1 in Oeste 3.1 mph 8.5 mph 43% 0 in
18:39 63.7 °F 41.2 °F 30.1 in OSO 3.4 mph 6.9 mph 44% 0 in
18:44 63.3 °F 41 °F 30.1 in OSO 4.3 mph 8.1 mph 44% 0 in
18:49 63.5 °F 41.2 °F 30.1 in Oeste 4.5 mph 8.1 mph 44% 0 in
18:54 63.3 °F 41 °F 30.1 in Oeste 5.2 mph 7.4 mph 44% 0 in
18:59 63.1 °F 41.4 °F 30.1 in OSO 4.8 mph 6.9 mph 45% 0 in
19:04 63 °F 41.4 °F 30.1 in OSO 4 mph 11.5 mph 45% 0 in
19:09 63 °F 41.4 °F 30.1 in OSO 4.3 mph 8.1 mph 45% 0 in
19:14 63 °F 41.4 °F 30.1 in OSO 5.4 mph 8.7 mph 45% 0 in
19:19 63.1 °F 41.4 °F 30.1 in OSO 5.4 mph 9.2 mph 45% 0 in
19:24 63 °F 41.5 °F 30.1 in OSO 5.4 mph 9.2 mph 45.3% 0 in
19:29 62.8 °F 41.7 °F 30.1 in OSO 5.2 mph 9.2 mph 46% 0 in
19:34 62.2 °F 41.5 °F 30.1 in OSO 4.7 mph 6.9 mph 46.6% 0 in
19:39 62.2 °F 41.7 °F 30.1 in OSO 4.6 mph 5.8 mph 47% 0 in
19:44 62.4 °F 41.9 °F 30.1 in OSO 4.3 mph 5.8 mph 47% 0 in
19:49 62.4 °F 41.9 °F 30.1 in Oeste 4 mph 9.2 mph 46.9% 0 in
19:54 62.6 °F 41.5 °F 30.1 in ONO 3.1 mph 9.2 mph 46% 0 in
19:59 62.8 °F 41.7 °F 30.1 in NO 3.2 mph 5.8 mph 46% 0 in
20:04 62.8 °F 41.7 °F 30.1 in NNE 3.6 mph 4.6 mph 46% 0 in
20:09 62.6 °F 41.5 °F 30.1 in NNE 3.3 mph 4.6 mph 46% 0 in
20:14 62.4 °F 41.4 °F 30.1 in NE 2.4 mph 4.7 mph 46% 0 in
20:19 62.4 °F 41.4 °F 30.1 in NNE 2.5 mph 7.4 mph 46.1% 0 in
20:24 62.2 °F 41.7 °F 30.1 in NNO 3.1 mph 9.2 mph 47% 0 in
20:29 62.1 °F 41.5 °F 30.1 in NO 3.4 mph 9.2 mph 47% 0 in
20:34 61.7 °F 41.7 °F 30.1 in Oeste 4 mph 8.1 mph 47.9% 0 in
20:39 61.5 °F 41.5 °F 30.1 in NNO 3.7 mph 5.9 mph 48% 0 in
20:44 61.2 °F 41.5 °F 30.1 in North 2.9 mph 8.1 mph 48.7% 0 in
20:49 60.6 °F 41.5 °F 30.1 in NNO 3.2 mph 8.5 mph 49.4% 0 in
20:54 60.4 °F 41.7 °F 30.1 in NO 4.3 mph 9.2 mph 50% 0 in
20:59 60.4 °F 41.7 °F 30.1 in ONO 4.7 mph 11.5 mph 50% 0 in
21:04 60.4 °F 41.7 °F 30.1 in NO 5.4 mph 10.7 mph 50% 0 in
21:09 60.4 °F 41.5 °F 30.1 in ONO 6 mph 15.2 mph 50% 0 in
21:14 60.6 °F 41.9 °F 30.1 in NO 7.6 mph 10.4 mph 50% 0 in
21:19 60.3 °F 41.5 °F 30.1 in NO 7 mph 8.1 mph 50.3% 0 in
21:24 59.5 °F 41.5 °F 30.1 in NO 5.4 mph 8.5 mph 51.1% 0 in
21:29 59.4 °F 41.7 °F 30.1 in ONO 5.1 mph 8.1 mph 52% 0 in
21:34 59.4 °F 41.7 °F 30.1 in SO 4.3 mph 4.6 mph 52% 0 in
21:39 59 °F 41.7 °F 30.1 in SSE 4 mph 5.2 mph 52.5% 0 in
21:44 58.5 °F 41.5 °F 30.1 in Sur 3.1 mph 5.9 mph 53.5% 0 in
21:49 57.9 °F 41.5 °F 30.1 in SSE 3.1 mph 5.9 mph 54.5% 0 in
21:54 57.6 °F 41.5 °F 30.1 in SSE 3.1 mph 6.2 mph 55% 0 in
21:59 57.4 °F 41.7 °F 30.1 in SSE 3 mph 4.6 mph 56% 0 in
22:04 57.2 °F 41.5 °F 30.1 in Sur 2.9 mph 6.2 mph 56% 0 in
22:09 57.2 °F 41.5 °F 30.1 in Sur 3.1 mph 5.8 mph 56% 0 in
22:14 57 °F 41.5 °F 30.1 in SSO 3.6 mph 5.8 mph 56% 0 in
22:19 57 °F 41.7 °F 30.1 in Sur 3.5 mph 5.8 mph 56.7% 0 in
22:24 56.8 °F 41.7 °F 30.1 in ONO 3.1 mph 3.5 mph 57% 0 in
22:29 56.5 °F 41.5 °F 30.1 in North 2.8 mph 4.6 mph 57.3% 0 in
22:34 56.1 °F 41.5 °F 30.1 in NNE 2 mph 3.6 mph 58% 0 in
22:39 55.9 °F 41.4 °F 30.1 in NNE 2 mph 2.3 mph 58% 0 in
22:44 55.9 °F 41.5 °F 30.1 in NNE 2 mph 3.6 mph 58.6% 0 in
22:49 55.8 °F 41.7 °F 30.1 in Este 2 mph 4.6 mph 59.1% 0 in
22:54 55.8 °F 41.9 °F 30.1 in ESE 2 mph 5.9 mph 59.4% 0 in
22:59 55.9 °F 41.7 °F 30.1 in SE 2.3 mph 6.4 mph 59% 0 in
23:04 55.9 °F 41.7 °F 30.1 in Oeste 3.1 mph 6.9 mph 59% 0 in
23:09 56.1 °F 41.9 °F 30.1 in Oeste 2.9 mph 3.6 mph 58.9% 0 in
23:14 56.3 °F 41.7 °F 30.1 in OSO 2.4 mph 5.2 mph 58% 0 in
23:19 56.1 °F 41.7 °F 30.1 in Oeste 2.5 mph 4.6 mph 58.5% 0 in
23:24 55.9 °F 41.7 °F 30.1 in OSO 2.9 mph 4.7 mph 58.8% 0 in
23:29 55.6 °F 41.5 °F 30.1 in SSO 2.9 mph 4.7 mph 59.4% 0 in
23:34 55 °F 41.5 °F 30.1 in Sur 2.9 mph 3.5 mph 60.2% 0 in
23:39 54.9 °F 41.7 °F 30.1 in Sur 2.6 mph 2.4 mph 61% 0 in
23:44 54.7 °F 41.5 °F 30.1 in SSE 1.8 mph 4.6 mph 61% 0 in
23:49 54.1 °F 41.5 °F 30.1 in SE 2 mph 4.6 mph 62.2% 0 in
23:54 54 °F 41.5 °F 30.1 in Sur 2.4 mph 3.5 mph 63% 0 in
23:59 54 °F 41.7 °F 30.1 in SO 2.2 mph 4.7 mph 63% 0 in
Murcia-Puente Tocinos, Espa?a
Compliments of Weather Underground - 3 mb

La estación de MeteoMurcia.com, publica sus datos en los siguientes proyectos:

Weather Underground PWS IMURCIAP2 Meteoclimatic www.awekas.at

W3Counter
Web Analytics